createdAt,value
2023-05-22T00:01:23.606Z,66.36
2023-05-22T00:03:50.155Z,66.20
2023-05-22T00:06:16.700Z,66.23
2023-05-22T00:08:43.184Z,66.29
2023-05-22T00:11:09.685Z,65.81
2023-05-22T00:13:36.302Z,66.13
2023-05-22T00:16:03.007Z,66.36
2023-05-22T00:18:29.554Z,65.87
2023-05-22T00:20:56.073Z,66.06
2023-05-22T00:23:22.656Z,66.72
2023-05-22T00:25:49.174Z,66.89
2023-05-22T00:28:15.723Z,66.94
2023-05-22T00:30:42.440Z,66.77
2023-05-22T00:33:09.124Z,66.28
2023-05-22T00:35:36.033Z,66.42
2023-05-22T00:38:03.842Z,67.09
2023-05-22T00:40:30.419Z,66.62
2023-05-22T00:42:57.001Z,67.09
2023-05-22T00:45:23.515Z,66.99
2023-05-22T00:47:50.606Z,67.62
2023-05-22T00:50:18.895Z,66.94
2023-05-22T00:52:46.555Z,67.05
2023-05-22T00:55:15.214Z,67.22
2023-05-22T00:57:42.621Z,67.93
2023-05-22T01:00:10.100Z,67.98
2023-05-22T01:02:37.616Z,67.90
2023-05-22T01:05:05.974Z,67.49
2023-05-22T01:07:34.282Z,67.49
2023-05-22T01:10:01.029Z,67.64
2023-05-22T01:12:38.140Z,67.57
2023-05-22T01:15:13.715Z,68.42
2023-05-22T01:17:50.624Z,67.80
2023-05-22T01:20:19.807Z,67.37
2023-05-22T01:23:08.332Z,68.12
2023-05-22T01:25:47.447Z,68.26
2023-05-22T01:28:39.191Z,68.28
2023-05-22T01:31:07.465Z,68.20
2023-05-22T01:33:42.158Z,68.42
2023-05-22T01:36:12.719Z,68.69
2023-05-22T01:38:41.503Z,68.58
2023-05-22T01:41:08.844Z,68.97
2023-05-22T01:43:36.646Z,69.09
2023-05-22T01:46:03.372Z,68.85
2023-05-22T01:48:29.912Z,69.29
2023-05-22T01:51:02.792Z,69.51
2023-05-22T01:53:59.512Z,70.43
2023-05-22T01:56:33.997Z,69.58
2023-05-22T01:59:17.739Z,70.55
2023-05-22T02:01:45.702Z,70.08
2023-05-22T02:04:13.550Z,70.78
2023-05-22T02:06:42.642Z,70.84
2023-05-22T02:09:10.695Z,70.92
2023-05-22T02:11:40.171Z,71.16
2023-05-22T02:14:06.970Z,71.55
2023-05-22T02:16:33.598Z,71.21
2023-05-22T02:19:01.384Z,71.75
2023-05-22T02:21:27.994Z,71.75
2023-05-22T02:23:54.491Z,71.97
2023-05-22T02:26:21.006Z,71.76
2023-05-22T02:28:49.306Z,72.47
2023-05-22T02:31:16.422Z,72.08
2023-05-22T02:33:43.438Z,72.50
2023-05-22T02:36:10.350Z,72.50
2023-05-22T02:38:37.004Z,73.01
2023-05-22T02:41:03.644Z,72.79
2023-05-22T02:43:30.145Z,73.18
2023-05-22T02:45:56.735Z,73.67
2023-05-22T02:48:23.291Z,73.01
2023-05-22T02:50:49.899Z,73.43
2023-05-22T02:53:16.696Z,73.09
2023-05-22T02:55:43.425Z,73.35
2023-05-22T02:58:11.441Z,73.01
2023-05-22T03:00:41.426Z,73.64
2023-05-22T03:03:08.318Z,73.59
2023-05-22T03:05:34.884Z,73.93
2023-05-22T03:08:01.469Z,73.60
2023-05-22T03:10:28.175Z,73.65
2023-05-22T03:12:54.775Z,74.00
2023-05-22T03:15:21.593Z,73.39
2023-05-22T03:17:49.985Z,73.76
2023-05-22T03:20:16.671Z,73.48
2023-05-22T03:22:44.287Z,74.25
2023-05-22T03:25:11.576Z,73.78
2023-05-22T03:27:39.809Z,74.06
2023-05-22T03:30:07.667Z,73.84
2023-05-22T03:32:36.772Z,74.53
2023-05-22T03:35:05.294Z,74.33
2023-05-22T03:37:31.962Z,74.58
2023-05-22T03:39:58.699Z,74.51
2023-05-22T03:42:28.679Z,74.64
2023-05-22T03:44:56.465Z,75.49
2023-05-22T03:47:23.953Z,74.73
2023-05-22T03:49:51.135Z,75.02
2023-05-22T03:52:17.640Z,75.36
2023-05-22T03:54:44.177Z,75.36
2023-05-22T03:57:10.773Z,75.26
2023-05-22T03:59:37.264Z,76.05
2023-05-22T04:02:04.032Z,76.00
2023-05-22T04:04:30.720Z,75.35
2023-05-22T04:06:57.242Z,75.85
2023-05-22T04:09:26.502Z,76.44
2023-05-22T04:11:53.044Z,76.31
2023-05-22T04:14:19.574Z,75.91
2023-05-22T04:16:47.147Z,76.51
2023-05-22T04:19:14.417Z,76.35
2023-05-22T04:21:41.291Z,75.83
2023-05-22T04:24:07.960Z,75.75
2023-05-22T04:26:34.883Z,76.50
2023-05-22T04:29:02.076Z,75.99
2023-05-22T04:31:28.689Z,76.65
2023-05-22T04:33:55.377Z,76.20
2023-05-22T04:36:22.383Z,76.00
2023-05-22T04:38:50.153Z,76.56
2023-05-22T04:41:16.707Z,76.69
2023-05-22T04:43:44.014Z,76.25
2023-05-22T04:46:10.786Z,76.58
2023-05-22T04:48:37.434Z,76.18
2023-05-22T04:51:04.945Z,76.50
2023-05-22T04:53:31.574Z,76.29
2023-05-22T04:55:58.169Z,76.14
2023-05-22T04:58:25.013Z,75.52
2023-05-22T05:00:51.624Z,75.37
2023-05-22T05:03:18.282Z,75.85
2023-05-22T05:05:44.938Z,75.60
2023-05-22T05:08:12.027Z,75.21
2023-05-22T05:10:39.278Z,75.87
2023-05-22T05:13:06.024Z,75.80
2023-05-22T05:15:37.189Z,75.87
2023-05-22T05:18:03.925Z,75.45
2023-05-22T05:20:30.474Z,75.57
2023-05-22T05:22:57.181Z,75.70
2023-05-22T05:25:23.758Z,74.94
2023-05-22T05:27:50.296Z,75.31
2023-05-22T05:30:19.579Z,75.36
2023-05-22T05:33:19.227Z,75.17
2023-05-22T05:36:06.247Z,75.32
2023-05-22T05:38:34.370Z,75.32
2023-05-22T05:41:01.038Z,74.99
2023-05-22T05:43:27.775Z,74.82
2023-05-22T05:45:58.583Z,74.29
2023-05-22T05:48:25.302Z,74.00
2023-05-22T05:50:52.113Z,74.33
2023-05-22T05:53:19.256Z,74.12
2023-05-22T05:55:51.961Z,73.99
2023-05-22T05:58:19.349Z,74.06
2023-05-22T06:00:57.784Z,73.19
2023-05-22T06:03:24.615Z,72.96
2023-05-22T06:05:59.371Z,73.39
2023-05-22T06:08:46.158Z,73.24
2023-05-22T06:11:12.823Z,73.82
2023-05-22T06:13:50.196Z,73.14
2023-05-22T06:16:16.832Z,72.36
2023-05-22T06:18:43.437Z,72.42
2023-05-22T06:21:10.080Z,72.26
2023-05-22T06:23:36.610Z,72.34
2023-05-22T06:26:03.524Z,71.94
2023-05-22T06:28:30.273Z,71.44
2023-05-22T06:30:58.808Z,71.72
2023-05-22T06:33:30.670Z,71.47
2023-05-22T06:35:57.546Z,72.13
2023-05-22T06:38:24.183Z,71.88
2023-05-22T06:40:50.718Z,71.37
2023-05-22T06:43:23.267Z,71.40
2023-05-22T06:45:54.297Z,71.63
2023-05-22T06:48:40.144Z,70.76
2023-05-22T06:51:14.577Z,70.74
2023-05-22T06:53:41.814Z,71.02
2023-05-22T06:56:13.743Z,70.36
2023-05-22T06:58:49.446Z,70.84
2023-05-22T07:01:16.040Z,70.50
2023-05-22T07:03:51.158Z,70.09
2023-05-22T07:06:37.967Z,69.79
2023-05-22T07:09:06.087Z,69.09
2023-05-22T07:11:33.213Z,69.31
2023-05-22T07:14:01.209Z,68.87
2023-05-22T07:16:27.841Z,68.59
2023-05-22T07:18:55.328Z,68.93
2023-05-22T07:21:22.176Z,68.97
2023-05-22T07:23:48.737Z,68.96
2023-05-22T07:26:15.344Z,69.09
2023-05-22T07:28:49.042Z,68.48
2023-05-22T07:31:16.101Z,68.48
2023-05-22T07:33:44.571Z,68.79
2023-05-22T07:36:11.330Z,68.72
2023-05-22T07:38:40.758Z,68.34
2023-05-22T07:41:07.337Z,68.45
2023-05-22T07:43:34.785Z,68.46
2023-05-22T07:46:01.764Z,68.85
2023-05-22T07:48:35.201Z,68.51
2023-05-22T07:51:01.733Z,68.73
2023-05-22T07:53:28.301Z,69.12
2023-05-22T07:55:57.717Z,68.78
2023-05-22T07:58:24.962Z,69.08
2023-05-22T08:00:52.084Z,69.02
2023-05-22T08:03:19.158Z,69.15
2023-05-22T08:05:47.051Z,68.93
2023-05-22T08:08:13.658Z,69.28
2023-05-22T08:13:11.316Z,69.41
2023-05-22T08:15:37.918Z,69.30
2023-05-22T08:18:04.542Z,69.20
2023-05-22T08:20:31.285Z,69.47
2023-05-22T08:22:57.826Z,68.94
2023-05-22T08:25:24.624Z,69.21
2023-05-22T08:27:51.135Z,68.66
2023-05-22T08:30:17.948Z,69.01
2023-05-22T08:32:44.531Z,68.88
2023-05-22T08:35:11.163Z,68.34
2023-05-22T08:37:37.645Z,68.33
2023-05-22T08:40:04.922Z,67.99
2023-05-22T08:42:31.476Z,68.02
2023-05-22T08:44:58.089Z,67.48
2023-05-22T08:47:25.656Z,67.39
2023-05-22T08:49:54.102Z,67.48
2023-05-22T08:52:30.417Z,66.86
2023-05-22T08:54:57.756Z,67.05
2023-05-22T08:57:24.656Z,67.53
2023-05-22T08:59:51.534Z,66.94
2023-05-22T09:02:18.199Z,66.79
2023-05-22T09:04:44.736Z,66.44
2023-05-22T09:07:11.261Z,67.36
2023-05-22T09:09:41.452Z,66.58
2023-05-22T09:12:09.909Z,66.93
2023-05-22T09:14:40.430Z,66.91
2023-05-22T09:17:08.998Z,66.63
2023-05-22T09:19:35.934Z,66.54
2023-05-22T09:22:04.123Z,66.53
2023-05-22T09:24:31.205Z,66.00
2023-05-22T09:27:02.939Z,66.05
2023-05-22T09:29:29.448Z,65.56
2023-05-22T09:31:56.046Z,65.24
2023-05-22T09:34:29.055Z,65.40
2023-05-22T09:37:02.248Z,65.31
2023-05-22T09:39:38.982Z,64.58
2023-05-22T09:42:05.820Z,64.01
2023-05-22T09:44:32.422Z,63.54
2023-05-22T09:46:58.950Z,62.89
2023-05-22T09:49:25.519Z,63.08
2023-05-22T09:51:54.929Z,62.47
2023-05-22T09:54:25.117Z,61.58
2023-05-22T09:56:56.236Z,61.85
2023-05-22T09:59:27.775Z,61.59
2023-05-22T10:01:54.672Z,61.33
2023-05-22T10:04:22.663Z,61.51
2023-05-22T10:06:52.665Z,61.70
2023-05-22T10:09:24.227Z,61.60
2023-05-22T10:11:54.962Z,61.38
2023-05-22T10:14:22.333Z,61.60
2023-05-22T10:16:49.102Z,61.99
2023-05-22T10:19:17.338Z,61.63
2023-05-22T10:21:46.239Z,61.20
2023-05-22T10:24:13.772Z,61.56
2023-05-22T10:26:41.596Z,61.38
2023-05-22T10:29:14.728Z,61.16
2023-05-22T10:31:48.799Z,61.36
2023-05-22T10:34:42.206Z,61.30
2023-05-22T10:37:31.214Z,61.19
2023-05-22T10:40:09.530Z,61.82
2023-05-22T10:42:38.078Z,61.65
2023-05-22T10:45:07.660Z,61.48
2023-05-22T10:47:34.523Z,61.92
2023-05-22T10:50:09.709Z,61.68
2023-05-22T10:52:38.147Z,61.72
2023-05-22T10:55:09.644Z,61.79
2023-05-22T10:57:39.700Z,62.22
2023-05-22T11:00:08.399Z,62.04
2023-05-22T11:02:44.563Z,62.41
2023-05-22T11:05:18.734Z,61.96
2023-05-22T11:07:45.394Z,61.51
2023-05-22T11:10:11.925Z,61.06
2023-05-22T11:12:38.532Z,61.33
2023-05-22T11:15:07.934Z,60.56
2023-05-22T11:17:40.118Z,60.83
2023-05-22T11:20:13.530Z,61.43
2023-05-22T11:22:49.443Z,61.08
2023-05-22T11:25:17.938Z,61.11
2023-05-22T11:27:45.029Z,61.33
2023-05-22T11:30:12.263Z,61.79
2023-05-22T11:32:40.326Z,61.60
2023-05-22T11:35:07.655Z,61.28
2023-05-22T11:37:41.111Z,61.59
2023-05-22T11:40:09.173Z,61.14
2023-05-22T11:42:36.703Z,61.29
2023-05-22T11:45:04.933Z,60.83
2023-05-22T11:47:31.626Z,60.45
2023-05-22T11:49:58.321Z,59.98
2023-05-22T11:52:24.931Z,59.72
2023-05-22T11:54:52.318Z,60.49
2023-05-22T11:57:19.523Z,59.71
2023-05-22T11:59:47.049Z,58.83
2023-05-22T12:02:13.890Z,59.00
2023-05-22T12:04:40.525Z,59.37
2023-05-22T12:07:07.946Z,59.43
2023-05-22T12:09:38.272Z,58.91
2023-05-22T12:12:05.094Z,59.35
2023-05-22T12:14:31.965Z,59.02
2023-05-22T12:16:59.042Z,58.93
2023-05-22T12:19:26.763Z,58.62
2023-05-22T12:21:54.120Z,58.94
2023-05-22T12:24:20.666Z,58.62
2023-05-22T12:26:53.726Z,58.11
2023-05-22T12:29:23.574Z,57.58
2023-05-22T12:31:51.248Z,57.82
2023-05-22T12:34:18.338Z,57.07
2023-05-22T12:36:46.675Z,56.36
2023-05-22T12:39:17.856Z,56.39
2023-05-22T12:41:47.174Z,56.02
2023-05-22T12:44:16.672Z,53.40
2023-05-22T12:46:43.427Z,53.06
2023-05-22T12:49:10.665Z,51.00
2023-05-22T12:51:37.273Z,50.32
2023-05-22T12:54:04.314Z,50.81
2023-05-22T12:56:31.592Z,49.53
2023-05-22T12:58:58.870Z,48.97
2023-05-22T13:01:26.158Z,48.18
2023-05-22T13:03:52.889Z,47.37
2023-05-22T13:06:20.066Z,46.37
2023-05-22T13:08:46.594Z,46.49
2023-05-22T13:11:13.197Z,45.93
2023-05-22T13:13:39.672Z,45.91
2023-05-22T13:16:06.272Z,45.94
2023-05-22T13:18:32.865Z,46.17
2023-05-22T13:20:59.456Z,45.89
2023-05-22T13:23:26.179Z,45.23
2023-05-22T13:25:52.746Z,45.32
2023-05-22T13:28:19.271Z,44.62
2023-05-22T13:30:45.911Z,44.05
2023-05-22T13:33:12.529Z,43.44
2023-05-22T13:35:39.323Z,42.88
2023-05-22T13:38:06.011Z,42.72
2023-05-22T13:40:32.565Z,41.85
2023-05-22T13:43:00.197Z,41.91
2023-05-22T13:45:26.918Z,41.37
2023-05-22T13:47:53.486Z,41.52
2023-05-22T13:50:20.078Z,41.33
2023-05-22T13:52:46.626Z,41.25
2023-05-22T13:55:13.277Z,41.61
2023-05-22T13:57:40.078Z,40.45
2023-05-22T14:00:07.901Z,40.18
2023-05-22T14:02:34.635Z,40.37
2023-05-22T14:05:01.270Z,39.65
2023-05-22T14:07:31.384Z,39.06
2023-05-22T14:10:00.423Z,38.50
2023-05-22T14:12:27.850Z,37.89
2023-05-22T14:14:54.408Z,37.17
2023-05-22T14:17:20.942Z,36.21
2023-05-22T14:19:47.542Z,34.95
2023-05-22T14:22:14.067Z,34.47
2023-05-22T14:24:40.573Z,33.09
2023-05-22T14:27:07.092Z,32.98
2023-05-22T14:29:33.728Z,32.50
2023-05-22T14:32:04.498Z,31.83
2023-05-22T14:34:31.632Z,31.37
2023-05-22T14:36:58.330Z,30.54
2023-05-22T14:39:25.823Z,30.46
2023-05-22T14:41:55.213Z,29.26
2023-05-22T14:44:21.759Z,29.49
2023-05-22T14:46:49.302Z,29.04
2023-05-22T14:49:15.867Z,28.74
2023-05-22T14:51:42.750Z,28.42
2023-05-22T14:54:09.268Z,28.14
2023-05-22T14:56:35.762Z,27.86
2023-05-22T14:59:02.308Z,27.18
2023-05-22T15:01:28.863Z,27.27
2023-05-22T15:03:55.403Z,27.32
2023-05-22T15:06:21.959Z,26.73
2023-05-22T15:08:48.460Z,25.96
2023-05-22T15:11:15.088Z,26.15
2023-05-22T15:13:41.588Z,26.82
2023-05-22T15:16:08.104Z,27.13
2023-05-22T15:18:34.679Z,26.43
2023-05-22T15:21:01.539Z,27.38
2023-05-22T15:23:28.046Z,27.66
2023-05-22T15:25:54.628Z,27.91
2023-05-22T15:28:21.785Z,28.77
2023-05-22T15:30:48.444Z,29.31
2023-05-22T15:33:15.501Z,29.94
2023-05-22T15:35:42.377Z,30.78
2023-05-22T15:38:08.906Z,30.99
2023-05-22T15:40:35.433Z,30.66
2023-05-22T15:43:02.049Z,30.60
2023-05-22T15:45:28.613Z,30.00
2023-05-22T15:47:55.388Z,30.07
2023-05-22T15:50:21.981Z,29.65
2023-05-22T15:52:48.467Z,28.92
2023-05-22T15:55:15.088Z,29.07
2023-05-22T15:57:41.707Z,29.23
2023-05-22T16:00:08.830Z,29.49
2023-05-22T16:02:35.407Z,28.73
2023-05-22T16:05:02.014Z,28.43
2023-05-22T16:07:28.607Z,28.71
2023-05-22T16:09:55.296Z,28.08
2023-05-22T16:12:22.416Z,27.89
2023-05-22T16:14:49.591Z,27.60
2023-05-22T16:17:16.263Z,27.18
2023-05-22T16:19:42.873Z,26.72
2023-05-22T16:22:09.448Z,26.61
2023-05-22T16:24:36.030Z,25.47
2023-05-22T16:27:02.661Z,24.10
2023-05-22T16:29:29.167Z,24.12
2023-05-22T16:31:56.429Z,24.89
2023-05-22T16:34:23.018Z,25.02
2023-05-22T16:36:49.547Z,25.76
2023-05-22T16:39:16.025Z,26.67
2023-05-22T16:41:42.607Z,26.98
2023-05-22T16:44:09.129Z,27.42
2023-05-22T16:46:35.667Z,28.24
2023-05-22T16:49:02.281Z,28.26
2023-05-22T16:51:28.825Z,28.63
2023-05-22T16:53:55.318Z,28.28
2023-05-22T16:56:21.933Z,28.24
2023-05-22T16:58:48.433Z,27.87
2023-05-22T17:01:15.196Z,27.39
2023-05-22T17:03:41.825Z,26.99
2023-05-22T17:06:08.462Z,26.61
2023-05-22T17:08:35.059Z,26.63
2023-05-22T17:11:01.640Z,25.93
2023-05-22T17:13:30.975Z,25.91
2023-05-22T17:15:57.682Z,26.96
2023-05-22T17:18:24.206Z,27.37
2023-05-22T17:20:51.909Z,26.86
2023-05-22T17:23:18.423Z,27.70
2023-05-22T17:25:45.407Z,27.81
2023-05-22T17:28:12.655Z,28.35
2023-05-22T17:30:39.297Z,28.59
2023-05-22T17:33:06.336Z,28.85
2023-05-22T17:35:32.878Z,29.18
2023-05-22T17:37:59.446Z,29.06
2023-05-22T17:40:39.953Z,29.57
2023-05-22T17:43:11.139Z,30.02
2023-05-22T17:45:37.876Z,30.14
2023-05-22T17:48:04.649Z,30.65
2023-05-22T17:50:31.193Z,30.96
2023-05-22T17:52:58.107Z,31.40
2023-05-22T17:55:24.644Z,31.51
2023-05-22T17:57:51.263Z,31.68
2023-05-22T18:00:18.217Z,32.36
2023-05-22T18:02:44.925Z,33.27
2023-05-22T18:05:11.529Z,33.59
2023-05-22T18:07:38.044Z,34.17
2023-05-22T18:10:05.029Z,33.77
2023-05-22T18:12:32.272Z,34.07
2023-05-22T18:14:59.520Z,33.93
2023-05-22T18:17:26.332Z,34.53
2023-05-22T18:19:52.823Z,34.87
2023-05-22T18:22:19.361Z,35.59
2023-05-22T18:24:45.904Z,35.97
2023-05-22T18:27:12.484Z,36.38
2023-05-22T18:29:39.200Z,36.42
2023-05-22T18:32:05.917Z,36.46
2023-05-22T18:34:32.449Z,37.64
2023-05-22T18:36:58.951Z,37.54
2023-05-22T18:39:25.450Z,38.19
2023-05-22T18:41:51.946Z,38.03
2023-05-22T18:44:18.461Z,38.75
2023-05-22T18:46:45.360Z,39.16
2023-05-22T18:49:11.941Z,39.31
2023-05-22T18:51:38.564Z,39.83
2023-05-22T18:54:05.284Z,40.16
2023-05-22T18:56:31.818Z,40.81
2023-05-22T18:58:58.314Z,41.27
2023-05-22T19:01:25.050Z,41.04
2023-05-22T19:03:51.611Z,41.60
2023-05-22T19:09:00.292Z,42.15
2023-05-22T19:11:27.136Z,42.54
2023-05-22T19:13:54.709Z,42.92
2023-05-22T19:16:21.374Z,43.33
2023-05-22T19:18:48.084Z,43.58
2023-05-22T19:21:14.749Z,43.90
2023-05-22T19:23:41.230Z,44.41
2023-05-22T19:26:07.912Z,44.73
2023-05-22T19:28:34.413Z,45.18
2023-05-22T19:31:01.075Z,45.81
2023-05-22T19:33:27.711Z,46.41
2023-05-22T19:35:54.345Z,46.47
2023-05-22T19:38:20.944Z,47.10
2023-05-22T19:40:47.533Z,47.41
2023-05-22T19:43:14.463Z,47.97
2023-05-22T19:45:41.064Z,48.29
2023-05-22T19:48:07.964Z,48.72
2023-05-22T19:50:34.753Z,49.50
2023-05-22T19:53:01.493Z,50.03
2023-05-22T19:55:28.269Z,50.78
2023-05-22T19:57:54.776Z,51.13
2023-05-22T20:00:21.346Z,51.74
2023-05-22T20:02:48.118Z,51.38
2023-05-22T20:05:14.736Z,52.41
2023-05-22T20:07:44.387Z,52.58
2023-05-22T20:10:11.633Z,53.07
2023-05-22T20:12:38.578Z,53.82
2023-05-22T20:15:05.846Z,53.72
2023-05-22T20:17:33.334Z,54.15
2023-05-22T20:20:00.648Z,54.97
2023-05-22T20:22:27.509Z,55.03
2023-05-22T20:24:54.583Z,55.89
2023-05-22T20:27:21.454Z,55.85
2023-05-22T20:29:48.021Z,56.55
2023-05-22T20:32:14.571Z,57.04
2023-05-22T20:34:41.177Z,56.81
2023-05-22T20:37:07.659Z,57.61
2023-05-22T20:39:34.593Z,57.56
2023-05-22T20:42:01.134Z,58.09
2023-05-22T20:44:28.556Z,58.13
2023-05-22T20:46:55.214Z,58.29
2023-05-22T20:49:21.757Z,59.33
2023-05-22T20:51:48.872Z,58.63
2023-05-22T20:54:18.154Z,59.61
2023-05-22T20:56:44.803Z,59.54
2023-05-22T20:59:11.456Z,59.63
2023-05-22T21:01:38.032Z,59.98
2023-05-22T21:04:04.608Z,60.34
2023-05-22T21:06:31.159Z,60.43
2023-05-22T21:08:57.717Z,61.14
2023-05-22T21:11:24.817Z,61.06
2023-05-22T21:13:51.380Z,60.59
2023-05-22T21:16:17.960Z,61.22
2023-05-22T21:18:44.626Z,61.88
2023-05-22T21:21:11.342Z,62.15
2023-05-22T21:23:37.946Z,62.56
2023-05-22T21:26:04.572Z,62.39
2023-05-22T21:28:31.230Z,62.82
2023-05-22T21:30:57.779Z,62.84
2023-05-22T21:33:24.379Z,63.50
2023-05-22T21:35:50.874Z,63.77
2023-05-22T21:38:17.405Z,63.88
2023-05-22T21:40:43.994Z,63.56
2023-05-22T21:43:10.531Z,63.94
2023-05-22T21:45:37.266Z,64.54
2023-05-22T21:48:03.976Z,64.22
2023-05-22T21:50:30.799Z,65.24
2023-05-22T21:52:57.326Z,65.01
2023-05-22T21:55:23.952Z,65.03
2023-05-22T21:57:50.433Z,65.08
2023-05-22T22:00:17.386Z,65.31
2023-05-22T22:02:44.104Z,65.86
2023-05-22T22:05:10.638Z,65.64
2023-05-22T22:07:38.293Z,66.53
2023-05-22T22:10:05.334Z,66.43
2023-05-22T22:12:31.906Z,66.33
2023-05-22T22:14:58.537Z,66.50
2023-05-22T22:17:25.092Z,66.90
2023-05-22T22:19:51.627Z,67.05
2023-05-22T22:22:18.269Z,66.50
2023-05-22T22:24:46.961Z,66.75
2023-05-22T22:27:14.710Z,66.65
2023-05-22T22:29:41.276Z,66.93
2023-05-22T22:32:07.869Z,67.32
2023-05-22T22:34:34.468Z,67.23
2023-05-22T22:37:00.978Z,67.34
2023-05-22T22:39:27.519Z,67.63
2023-05-22T22:41:54.115Z,67.36
2023-05-22T22:44:20.967Z,66.99
2023-05-22T22:46:47.462Z,67.10
2023-05-22T22:49:14.016Z,67.21
2023-05-22T22:51:40.493Z,67.07
2023-05-22T22:54:07.014Z,67.74
2023-05-22T22:56:33.851Z,67.58
2023-05-22T22:59:00.401Z,67.81
2023-05-22T23:01:26.938Z,67.81
2023-05-22T23:03:53.600Z,68.16
2023-05-22T23:06:20.194Z,67.85
2023-05-22T23:08:46.761Z,67.87
2023-05-22T23:11:13.310Z,68.46
2023-05-22T23:13:39.992Z,68.94
2023-05-22T23:16:06.763Z,68.52
2023-05-22T23:18:33.390Z,68.33
2023-05-22T23:20:59.934Z,68.42
2023-05-22T23:23:26.417Z,69.11
2023-05-22T23:25:52.995Z,68.70
2023-05-22T23:28:19.488Z,68.52
2023-05-22T23:30:45.973Z,69.33
2023-05-22T23:33:12.505Z,69.69
2023-05-22T23:35:39.267Z,69.02
2023-05-22T23:38:06.405Z,69.89
2023-05-22T23:40:32.944Z,69.54
2023-05-22T23:42:59.470Z,70.32
2023-05-22T23:45:26.041Z,70.13
2023-05-22T23:47:52.580Z,70.37
2023-05-22T23:50:19.092Z,70.53
2023-05-22T23:52:45.642Z,71.30
2023-05-22T23:55:13.102Z,71.90
2023-05-22T23:57:39.650Z,71.43
